Time;durP1;ratioP1;P1;durP2;ratioP2;P2;SDS_P1;SDS_P2;PMS_P1;PMS_P2;Temp;Humidity;BMP_temperature;BMP_pressure;BME280_temperature;BME280_humidity;BME280_pressure;Samples;Min_cycle;Max_cycle;Signal;HPM_P1;HPM_P2
2021/12/31 00:01:34;;;;;;;70.53;40.65;;;;;;;2.47;87.26;98365.69;10364022;28;20064;-58
2021/12/31 00:06:34;;;;;;;74.47;43.10;;;;;;;2.44;87.43;98343.41;10386809;28;20064;-58
2021/12/31 00:11:34;;;;;;;71.13;39.10;;;;;;;2.47;87.83;98350.31;10372569;28;20056;-58
2021/12/31 00:16:33;;;;;;;70.88;40.72;;;;;;;2.46;87.75;98346.88;10371527;28;20071;-58
2021/12/31 00:21:36;;;;;;;;;;;;;;;2.37;87.89;98361.84;10374194;28;20053;-58
2021/12/31 00:26:35;;;;;;;78.72;43.13;;;;;;;2.13;88.18;98352.34;10372288;28;19987;-58
2021/12/31 00:31:34;;;;;;;91.35;49.95;;;;;;;2.16;87.97;98357.63;10373416;28;20060;-58
2021/12/31 00:36:47;;;;;;;96.40;55.50;;;;;;;2.16;88.41;98347.38;10373757;28;20065;-58
2021/12/31 00:41:47;;;;;;;81.32;46.40;;;;;;;2.23;88.19;98352.72;10372761;28;20059;-58
2021/12/31 00:46:47;;;;;;;76.35;43.78;;;;;;;1.88;88.03;98329.09;10371882;28;20064;-58
2021/12/31 00:51:46;;;;;;;81.10;43.75;;;;;;;1.92;88.71;98352.31;10373294;28;20063;-58
2021/12/31 00:56:45;;;;;;;70.10;40.03;;;;;;;1.98;88.63;98364.53;10373250;28;20480;-58
2021/12/31 01:01:44;;;;;;;73.90;43.20;;;;;;;2.05;88.73;98338.38;10376161;28;20090;-58
2021/12/31 01:06:43;;;;;;;75.53;42.97;;;;;;;2.11;88.27;98333.53;10372783;28;20116;-58
2021/12/31 01:11:46;;;;;;;76.78;42.85;;;;;;;2.23;88.46;98338.28;10373438;28;20043;-58
2021/12/31 01:16:50;;;;;;;70.75;42.42;;;;;;;2.12;88.39;98303.66;10372147;28;20079;-58
2021/12/31 01:21:49;;;;;;;82.20;46.72;;;;;;;2.27;87.78;98308.53;10372159;28;20075;-58
2021/12/31 01:26:48;;;;;;;79.93;43.80;;;;;;;2.38;87.78;98340.56;10372871;28;20033;-58
2021/12/31 01:31:50;;;;;;;85.57;46.35;;;;;;;2.28;87.49;98346.16;10371789;28;20095;-58
2021/12/31 01:36:50;;;;;;;86.63;47.33;;;;;;;2.12;87.55;98317.34;10372482;28;20444;-58
2021/12/31 01:41:49;;;;;;;84.45;44.90;;;;;;;2.03;87.39;98328.88;10372958;28;20052;-58
2021/12/31 01:46:59;;;;;;;83.00;44.03;;;;;;;1.87;87.68;98338.47;10371432;28;20391;-58
2021/12/31 01:51:58;;;;;;;75.03;40.95;;;;;;;1.72;87.67;98350.63;10370467;28;20052;-58
2021/12/31 01:57:04;;;;;;;79.25;41.50;;;;;;;1.64;87.97;98365.59;10371114;28;20436;-58
2021/12/31 02:02:05;;;;;;;75.55;39.22;;;;;;;1.46;87.70;98360.56;10371624;28;20087;-58
2021/12/31 02:07:05;;;;;;;85.68;42.63;;;;;;;1.46;87.45;98365.69;10368031;28;20072;-58
2021/12/31 02:12:04;;;;;;;84.45;41.78;;;;;;;1.43;87.85;98369.78;10371252;28;20059;-58
2021/12/31 02:17:09;;;;;;;89.35;44.25;;;;;;;1.36;87.92;98371.19;10370846;28;20123;-58
2021/12/31 02:22:08;;;;;;;91.22;44.83;;;;;;;1.37;88.24;98374.63;10371016;28;20069;-58
2021/12/31 02:27:07;;;;;;;86.90;43.25;;;;;;;1.41;88.08;98366.28;10377109;28;20041;-58
2021/12/31 02:32:06;;;;;;;110.38;51.28;;;;;;;1.39;88.47;98360.22;10379133;28;20462;-58
2021/12/31 02:37:05;;;;;;;133.00;54.97;;;;;;;1.42;88.52;98373.16;10378561;28;20037;-58
2021/12/31 02:42:06;;;;;;;116.45;48.25;;;;;;;1.42;88.72;98379.13;10378223;28;20381;-58
2021/12/31 02:47:06;;;;;;;137.60;50.83;;;;;;;1.38;89.08;98394.28;10379264;28;20079;-58
2021/12/31 02:52:09;;;;;;;124.07;52.42;;;;;;;1.40;89.26;98405.44;10377481;28;20045;-58
2021/12/31 02:57:09;;;;;;;127.32;53.63;;;;;;;1.41;89.20;98397.88;10377583;28;20472;-58
2021/12/31 03:02:08;;;;;;;123.35;52.63;;;;;;;1.53;89.31;98410.31;10378469;28;20056;-58
2021/12/31 03:07:11;;;;;;;124.97;50.63;;;;;;;1.61;89.33;98415.78;10377945;28;20108;-56
2021/12/31 03:12:13;;;;;;;126.55;50.58;;;;;;;1.64;89.54;98403.97;10376675;28;20069;-58
2021/12/31 03:17:13;;;;;;;128.73;51.00;;;;;;;1.65;89.60;98412.56;10377795;28;20076;-58
2021/12/31 03:22:12;;;;;;;127.50;48.08;;;;;;;1.64;89.89;98421.03;10374157;28;20068;-58
2021/12/31 03:27:11;;;;;;;132.50;47.45;;;;;;;1.63;89.36;98420.16;10378188;28;20053;-56
2021/12/31 03:32:10;;;;;;;118.10;41.47;;;;;;;1.62;89.34;98438.88;10379007;28;20132;-58
2021/12/31 03:37:09;;;;;;;128.25;41.78;;;;;;;1.67;89.69;98432.28;10377821;28;20031;-58
2021/12/31 03:42:09;;;;;;;138.35;43.13;;;;;;;1.71;89.23;98441.81;10378150;28;20512;-58
2021/12/31 03:47:08;;;;;;;143.38;42.33;;;;;;;1.73;89.57;98440.22;10378281;28;20075;-58
2021/12/31 03:52:08;;;;;;;107.18;40.15;;;;;;;1.60;89.23;98449.81;10378003;28;20132;-58
2021/12/31 03:57:06;;;;;;;150.07;44.80;;;;;;;1.50;89.51;98434.06;10342432;28;20093;-58
2021/12/31 04:02:05;;;;;;;140.30;40.38;;;;;;;1.50;89.75;98428.06;10336917;28;20036;-58
2021/12/31 04:07:04;;;;;;;165.70;41.15;;;;;;;1.46;90.21;98436.44;10336663;28;20037;-58
2021/12/31 04:12:04;;;;;;;361.50;52.92;;;;;;;1.21;89.90;98429.31;10336531;28;20723;-58
2021/12/31 04:17:03;;;;;;;294.63;51.60;;;;;;;1.08;90.38;98433.84;10336653;28;20473;-58
2021/12/31 04:22:02;;;;;;;;;;;;;;;1.08;90.51;98420.16;10336124;28;20497;-58
2021/12/31 04:27:02;;;;;;;614.45;68.03;;;;;;;1.04;90.64;98436.19;10335661;28;20766;-58
2021/12/31 04:32:02;;;;;;;435.77;62.58;;;;;;;0.83;90.86;98419.03;10335266;28;20080;-58
2021/12/31 04:37:01;;;;;;;333.58;44.90;;;;;;;0.97;90.87;98429.03;10335036;28;20456;-58
2021/12/31 04:42:00;;;;;;;452.58;66.95;;;;;;;0.59;91.37;98441.72;10333055;28;20500;-58
2021/12/31 04:46:59;;;;;;;;;;;;;;;0.34;92.33;98451.50;10334037;28;20100;-58
2021/12/31 04:51:58;;;;;;;336.25;50.10;;;;;;;0.35;92.51;98461.78;10252910;28;20015;-58
2021/12/31 04:56:58;;;;;;;377.33;45.25;;;;;;;0.16;93.09;98461.66;10379178;28;20072;-58
2021/12/31 05:01:57;;;;;;;130.93;33.63;;;;;;;0.38;92.57;98461.03;10415080;28;20076;-58
2021/12/31 05:06:56;;;;;;;125.78;33.38;;;;;;;0.52;92.50;98461.75;10413998;28;20107;-58
2021/12/31 05:11:55;;;;;;;75.50;25.90;;;;;;;0.70;92.21;98470.31;10415122;28;20040;-58
2021/12/31 05:16:54;;;;;;;98.25;29.70;;;;;;;0.40;92.14;98383.72;10414807;28;20089;-58
2021/12/31 05:21:53;;;;;;;101.35;30.48;;;;;;;0.82;91.90;98445.34;10414407;28;20903;-58
2021/12/31 05:26:52;;;;;;;112.32;30.08;;;;;;;0.91;91.76;98447.50;10414423;28;20794;-58
2021/12/31 05:31:51;;;;;;;162.77;32.03;;;;;;;0.52;91.94;98452.41;10413065;28;20070;-58
2021/12/31 05:36:50;;;;;;;218.13;37.78;;;;;;;0.24;92.17;98438.28;10413391;28;20020;-58
2021/12/31 05:41:49;;;;;;;201.23;33.97;;;;;;;0.12;92.11;98434.22;10413956;28;20033;-58
2021/12/31 05:46:50;;;;;;;183.73;33.47;;;;;;;0.30;91.96;98460.66;10415442;28;20052;-58
2021/12/31 05:51:50;;;;;;;201.80;37.28;;;;;;;0.34;91.91;98464.28;10413632;28;20079;-58
2021/12/31 05:56:49;;;;;;;226.80;38.53;;;;;;;0.46;92.00;98463.19;10414098;28;20448;-58
2021/12/31 06:01:48;;;;;;;159.30;35.80;;;;;;;0.57;91.79;98467.94;10415800;28;20072;-58
2021/12/31 06:06:47;;;;;;;334.92;53.78;;;;;;;0.64;91.74;98475.13;10422827;28;20135;-58
2021/12/31 06:11:46;;;;;;;250.90;52.50;;;;;;;0.55;91.87;98465.34;10422770;28;20025;-58
2021/12/31 06:16:46;;;;;;;233.13;52.97;;;;;;;0.50;92.12;98460.78;10422974;28;20076;-58
2021/12/31 06:21:46;;;;;;;187.25;47.75;;;;;;;0.48;92.24;98473.50;10422389;28;20452;-58
2021/12/31 06:26:45;;;;;;;269.95;51.03;;;;;;;0.44;92.38;98464.78;10422181;28;20155;-58
2021/12/31 06:31:44;;;;;;;275.95;50.55;;;;;;;0.38;92.66;98471.25;10420721;28;20053;-58
2021/12/31 06:36:42;;;;;;;401.15;63.15;;;;;;;0.38;92.49;98463.59;10420670;28;20032;-58
2021/12/31 06:41:42;;;;;;;286.52;58.88;;;;;;;0.46;92.69;98480.19;10419722;28;20035;-58
2021/12/31 06:46:41;;;;;;;240.48;56.60;;;;;;;0.56;92.66;98491.75;10420941;28;20179;-58
2021/12/31 06:51:40;;;;;;;232.38;55.90;;;;;;;0.61;92.57;98500.50;10419743;28;20045;-58
2021/12/31 06:56:39;;;;;;;262.55;64.13;;;;;;;0.63;92.71;98488.69;10420334;28;20037;-58
2021/12/31 07:01:37;;;;;;;223.57;57.17;;;;;;;0.79;92.96;98496.31;10420898;28;20048;-58
2021/12/31 07:06:36;;;;;;;145.85;47.75;;;;;;;0.56;92.55;98450.88;10420998;28;20519;-58
2021/12/31 07:11:35;;;;;;;157.00;41.25;;;;;;;0.41;93.02;98451.88;10417873;28;20033;-58
2021/12/31 07:16:34;;;;;;;181.77;47.50;;;;;;;0.52;93.38;98506.03;10417789;28;20032;-58
2021/12/31 07:21:33;;;;;;;202.63;46.15;;;;;;;0.56;92.88;98515.59;10416959;28;20029;-58
2021/12/31 07:26:32;;;;;;;183.50;43.83;;;;;;;0.71;92.69;98518.06;10415780;28;20476;-58
2021/12/31 07:31:31;;;;;;;148.98;45.72;;;;;;;0.82;92.63;98508.34;10417313;28;20514;-58
2021/12/31 07:36:30;;;;;;;150.15;50.17;;;;;;;0.92;92.92;98522.47;10417705;28;20036;-58
2021/12/31 07:41:30;;;;;;;225.18;57.13;;;;;;;1.01;92.54;98518.66;10417077;28;20059;-58
2021/12/31 07:46:29;;;;;;;205.27;57.60;;;;;;;0.95;92.72;98502.19;10416454;28;20094;-58
2021/12/31 07:51:28;;;;;;;259.92;68.97;;;;;;;1.07;92.93;98515.56;10415516;28;20079;-58
2021/12/31 07:56:27;;;;;;;264.35;67.90;;;;;;;1.13;92.65;98505.63;10415044;28;20037;-58
2021/12/31 08:01:26;;;;;;;251.27;80.95;;;;;;;1.15;92.57;98511.69;10415876;28;20810;-58
2021/12/31 08:06:25;;;;;;;;;;;;;;;1.17;92.30;98512.63;10416676;28;20100;-57
2021/12/31 08:11:24;;;;;;;240.98;74.38;;;;;;;1.11;92.51;98509.78;10415869;28;19927;-58
2021/12/31 08:16:23;;;;;;;222.95;72.63;;;;;;;1.14;92.10;98499.72;10415986;28;20400;-57
2021/12/31 08:21:22;;;;;;;378.75;100.65;;;;;;;1.11;92.61;98509.78;10416071;28;20040;-58
2021/12/31 08:26:21;;;;;;;320.83;86.95;;;;;;;1.03;92.06;98508.53;10414461;28;20403;-58
2021/12/31 08:31:20;;;;;;;346.95;94.13;;;;;;;1.02;92.11;98501.69;10414898;28;20079;-58
2021/12/31 08:36:18;;;;;;;287.02;83.72;;;;;;;1.16;92.08;98498.09;10414869;28;20028;-58
2021/12/31 08:41:17;;;;;;;171.93;62.00;;;;;;;1.28;92.30;98502.94;10413813;28;20016;-58
2021/12/31 08:46:17;;;;;;;173.65;53.97;;;;;;;1.53;92.38;98490.50;10414096;28;20068;-58
2021/12/31 08:51:17;;;;;;;197.75;67.47;;;;;;;1.62;92.14;98474.69;10415078;28;20868;-58
2021/12/31 08:56:16;;;;;;;301.90;88.50;;;;;;;1.60;92.02;98463.50;10413573;28;20059;-58
2021/12/31 09:01:15;;;;;;;253.10;83.57;;;;;;;1.45;91.63;98461.09;10414081;28;20091;-58
2021/12/31 09:06:18;;;;;;;274.67;76.70;;;;;;;1.54;91.78;98455.53;10411283;28;20400;-58
2021/12/31 09:11:17;;;;;;;291.27;72.03;;;;;;;1.49;91.43;98427.19;10410314;28;20107;-58
2021/12/31 09:16:16;;;;;;;388.17;96.55;;;;;;;1.69;91.50;98438.34;10411562;28;20099;-58
2021/12/31 09:21:17;;;;;;;291.02;82.55;;;;;;;1.75;91.42;98443.72;10412999;28;20387;-58
2021/12/31 09:26:17;;;;;;;250.20;82.93;;;;;;;1.81;91.73;98417.53;10412570;28;20092;-58
2021/12/31 09:31:16;;;;;;;258.13;76.65;;;;;;;2.24;91.18;98444.13;10410888;28;20072;-58
2021/12/31 09:36:15;;;;;;;148.82;62.80;;;;;;;2.34;90.64;98449.69;10412450;28;20426;-58
2021/12/31 09:41:14;;;;;;;163.55;64.95;;;;;;;2.44;91.09;98435.59;10412830;28;20055;-58
2021/12/31 09:46:15;;;;;;;186.88;63.47;;;;;;;2.61;90.74;98428.63;10412188;28;20039;-58
2021/12/31 09:51:14;;;;;;;208.98;70.03;;;;;;;2.79;89.55;98419.13;10410774;28;20060;-58
2021/12/31 09:56:16;;;;;;;204.25;78.50;;;;;;;2.88;90.28;98413.47;10412681;28;20021;-58
2021/12/31 10:01:15;;;;;;;211.45;82.68;;;;;;;3.08;90.26;98416.81;10412863;28;20060;-58
2021/12/31 10:06:14;;;;;;;213.98;93.03;;;;;;;3.12;88.99;98421.25;10413209;28;20025;-57
2021/12/31 10:11:26;;;;;;;226.90;93.95;;;;;;;3.11;88.61;98413.50;10413879;28;20079;-58
2021/12/31 10:16:26;;;;;;;266.48;107.85;;;;;;;3.14;89.18;98411.03;10414811;28;20443;-58
2021/12/31 10:21:38;;;;;;;257.27;106.35;;;;;;;3.26;88.30;98401.28;10414369;28;20487;-58
2021/12/31 10:26:37;;;;;;;248.88;109.10;;;;;;;3.31;88.10;98396.28;10414010;28;20083;-58
2021/12/31 10:31:48;;;;;;;233.57;108.72;;;;;;;3.42;87.91;98390.78;10414097;28;20053;-58
2021/12/31 10:36:47;;;;;;;225.57;103.47;;;;;;;3.54;87.53;98371.50;10414501;28;20499;-58
2021/12/31 10:41:50;;;;;;;191.85;101.25;;;;;;;3.64;87.45;98378.75;10414399;28;20399;-58
2021/12/31 10:47:08;;;;;;;195.88;106.40;;;;;;;3.81;87.93;98372.50;10416932;28;20076;-58
2021/12/31 10:52:10;;;;;;;189.68;101.03;;;;;;;4.07;86.05;98373.41;10420655;28;20510;-58
2021/12/31 10:57:09;;;;;;;215.85;115.22;;;;;;;4.08;86.22;98354.63;10420630;28;20068;-58
2021/12/31 11:02:10;;;;;;;214.57;112.55;;;;;;;4.16;85.89;98360.00;10414648;28;20042;-58
2021/12/31 11:07:10;;;;;;;266.15;131.95;;;;;;;4.24;84.64;98356.03;10408939;28;20124;-58
2021/12/31 11:12:12;;;;;;;235.10;123.53;;;;;;;4.11;84.89;98345.28;10417072;28;20086;-58
2021/12/31 11:17:11;;;;;;;230.32;123.30;;;;;;;4.01;85.63;98342.41;10419308;28;20071;-58
2021/12/31 11:22:15;;;;;;;211.05;115.53;;;;;;;3.91;85.73;98347.16;10417288;28;20040;-58
2021/12/31 11:27:25;;;;;;;92.03;50.40;;;;;;;3.87;86.21;98356.47;10419329;28;20087;-58
2021/12/31 11:32:47;;;;;;;58.40;32.88;;;;;;;3.84;86.10;98357.19;10417153;28;20511;-57
2021/12/31 11:37:46;;;;;;;100.07;55.20;;;;;;;3.80;86.08;98314.28;10413453;28;20060;-58
2021/12/31 11:43:14;;;;;;;130.00;75.25;;;;;;;4.42;86.28;98342.91;10416696;28;20133;-58
2021/12/31 11:48:45;;;;;;;128.23;81.43;;;;;;;4.94;86.70;98338.56;10417661;28;20110;-56
2021/12/31 11:53:56;;;;;;;109.90;71.10;;;;;;;5.26;85.73;98329.22;10415966;28;20479;-58
2021/12/31 11:58:55;;;;;;;89.22;56.47;;;;;;;5.57;84.19;98327.53;10399286;28;20551;-58
2021/12/31 12:04:22;;;;;;;89.13;62.83;;;;;;;5.90;84.08;98324.13;10416862;28;20487;-58
2021/12/31 12:09:42;;;;;;;114.78;78.95;;;;;;;6.04;82.19;98325.38;10415160;28;20064;-58
2021/12/31 12:14:47;;;;;;;94.40;64.35;;;;;;;6.07;81.81;98317.72;10405947;28;20074;-58
2021/12/31 12:19:46;;;;;;;65.13;46.70;;;;;;;6.27;81.84;98323.38;10415200;28;20064;-58
2021/12/31 12:24:45;;;;;;;64.68;46.92;;;;;;;6.37;81.14;98309.91;10418229;28;20032;-58
2021/12/31 12:29:44;;;;;;;45.42;33.58;;;;;;;6.51;81.54;98317.94;10417190;28;20540;-58
2021/12/31 12:34:43;;;;;;;44.20;31.52;;;;;;;6.73;80.60;98306.44;10414917;28;20575;-56
2021/12/31 12:39:42;;;;;;;43.80;33.83;;;;;;;6.78;81.08;98307.41;10415186;28;20060;-56
2021/12/31 12:44:57;;;;;;;45.13;33.38;;;;;;;7.06;80.10;98294.28;10416931;28;20068;-57
2021/12/31 12:49:57;;;;;;;50.30;36.92;;;;;;;7.23;80.70;98305.81;10417018;28;20515;-57
2021/12/31 12:55:11;;;;;;;52.80;37.92;;;;;;;7.36;80.17;98286.31;10415888;28;20060;-57
2021/12/31 13:00:10;;;;;;;63.83;47.65;;;;;;;7.38;78.95;98284.59;10415433;28;20071;-56
2021/12/31 13:05:11;;;;;;;76.28;57.22;;;;;;;7.30;79.02;98288.75;10414893;28;20072;-56
2021/12/31 13:10:13;;;;;;;40.08;29.33;;;;;;;7.30;78.44;98283.59;10413677;28;20078;-56
2021/12/31 13:15:12;;;;;;;75.63;54.38;;;;;;;7.35;77.98;98284.53;10414357;28;20075;-57
2021/12/31 13:20:13;;;;;;;57.60;37.97;;;;;;;7.48;78.56;98278.81;10415358;28;20074;-57
2021/12/31 13:25:12;;;;;;;94.13;61.97;;;;;;;7.43;78.54;98289.06;10413207;28;20067;-56
2021/12/31 13:30:12;;;;;;;105.50;75.22;;;;;;;7.36;78.58;98284.59;10412538;28;20135;-56
2021/12/31 13:35:14;;;;;;;110.82;79.10;;;;;;;7.31;79.19;98287.88;10412803;28;20067;-57
2021/12/31 13:40:20;;;;;;;113.03;80.88;;;;;;;7.29;79.56;98279.25;10413393;28;20078;-56
2021/12/31 13:45:24;;;;;;;50.58;37.80;;;;;;;7.07;79.27;98283.97;10412923;28;20064;-57
2021/12/31 13:50:30;;;;;;;50.28;36.40;;;;;;;7.01;79.82;98284.72;10414387;28;20075;-56
2021/12/31 13:55:32;;;;;;;92.65;61.67;;;;;;;6.85;80.34;98271.44;10412963;28;20048;-56
2021/12/31 14:00:34;;;;;;;41.60;31.90;;;;;;;6.75;80.92;98276.41;10411261;28;20060;-56
2021/12/31 14:05:33;;;;;;;39.80;27.92;;;;;;;6.76;80.97;98262.66;10411040;28;20063;-56
2021/12/31 14:10:34;;;;;;;52.85;34.28;;;;;;;6.78;80.97;98270.44;10412133;28;20063;-57
2021/12/31 14:15:35;;;;;;;37.17;25.83;;;;;;;6.60;80.51;98256.28;10410481;28;20506;-57
2021/12/31 14:20:37;;;;;;;37.67;28.20;;;;;;;6.61;80.94;98246.84;10414923;28;20056;-56
2021/12/31 14:25:41;;;;;;;61.55;43.78;;;;;;;6.74;81.23;98258.31;10420125;28;20055;-56
2021/12/31 14:30:40;;;;;;;49.95;37.58;;;;;;;6.63;80.87;98258.06;10420631;28;20075;-57
2021/12/31 14:35:44;;;;;;;56.72;41.20;;;;;;;6.27;82.03;98266.69;10420560;28;20056;-57
2021/12/31 14:40:49;;;;;;;69.38;51.25;;;;;;;6.18;82.19;98269.88;10421061;28;20094;-56
2021/12/31 14:45:48;;;;;;;48.58;34.33;;;;;;;6.09;82.45;98273.94;10408911;28;20115;-56
2021/12/31 14:50:47;;;;;;;46.20;30.35;;;;;;;6.09;82.56;98276.53;10419776;28;20107;-57
2021/12/31 14:55:46;;;;;;;;;;;;;;;6.01;82.39;98270.31;10420198;28;20055;-57
2021/12/31 15:00:45;;;;;;;93.47;59.05;;;;;;;5.78;83.01;98262.88;10420437;28;19908;-57
2021/12/31 15:05:44;;;;;;;60.28;38.90;;;;;;;5.73;82.58;98267.03;10417127;28;20036;-57
2021/12/31 15:10:44;;;;;;;60.20;40.20;;;;;;;5.71;82.88;98266.13;10410777;28;20146;-57
2021/12/31 15:15:43;;;;;;;69.10;47.65;;;;;;;5.67;83.34;98269.44;10419106;28;20060;-57
2021/12/31 15:20:42;;;;;;;65.18;43.38;;;;;;;5.64;82.67;98280.53;10418277;28;20083;-57
2021/12/31 15:25:42;;;;;;;71.22;47.03;;;;;;;5.56;82.72;98261.44;10418932;28;20032;-57
2021/12/31 15:30:42;;;;;;;95.70;63.65;;;;;;;5.54;83.68;98275.97;10419056;28;20073;-57
2021/12/31 15:35:41;;;;;;;126.15;84.00;;;;;;;5.50;83.79;98279.28;10418005;28;20065;-57
2021/12/31 15:40:40;;;;;;;152.93;101.05;;;;;;;5.43;83.74;98277.38;10418271;28;20028;-57
2021/12/31 15:45:39;;;;;;;182.05;123.00;;;;;;;5.39;83.99;98271.28;10418756;28;20064;-57
2021/12/31 15:50:38;;;;;;;;;;;;;;;5.41;84.35;98269.59;10416157;28;20115;-57
2021/12/31 15:55:37;;;;;;;226.32;147.75;;;;;;;5.20;83.96;98251.00;10415483;28;20410;-57
2021/12/31 16:00:36;;;;;;;238.00;161.27;;;;;;;5.34;83.74;98277.97;10416966;28;20568;-57
2021/12/31 16:05:35;;;;;;;222.27;147.75;;;;;;;5.30;83.95;98265.88;10417538;28;20036;-57
2021/12/31 16:10:34;;;;;;;202.00;132.43;;;;;;;5.24;84.04;98264.00;10418563;28;20032;-57
2021/12/31 16:15:33;;;;;;;222.55;149.15;;;;;;;5.11;84.10;98249.91;10418665;28;20067;-57
2021/12/31 16:20:32;;;;;;;240.02;161.93;;;;;;;5.10;84.42;98270.44;10417477;28;20071;-57
2021/12/31 16:25:31;;;;;;;270.90;187.50;;;;;;;4.99;84.59;98259.84;10416480;28;20032;-57
2021/12/31 16:30:31;;;;;;;298.10;203.32;;;;;;;4.78;85.38;98256.59;10416949;28;20450;-57
2021/12/31 16:35:29;;;;;;;;;;;;;;;4.78;85.30;98261.75;10416995;28;20048;-57
2021/12/31 16:40:29;;;;;;;295.27;191.10;;;;;;;4.75;85.46;98277.09;10416390;28;19921;-57
2021/12/31 16:45:28;;;;;;;305.30;206.80;;;;;;;4.65;85.45;98273.38;10412521;28;20507;-57
2021/12/31 16:50:27;;;;;;;320.65;212.95;;;;;;;4.55;85.75;98284.16;10415255;28;20880;-57
2021/12/31 16:55:26;;;;;;;307.38;206.63;;;;;;;4.41;85.43;98279.50;10415492;28;20552;-57
2021/12/31 17:00:25;;;;;;;325.13;221.73;;;;;;;4.34;85.81;98284.38;10415346;28;20056;-57
2021/12/31 17:05:24;;;;;;;333.35;228.23;;;;;;;4.25;86.34;98290.97;10416269;28;20071;-57
2021/12/31 17:10:28;;;;;;;341.00;232.25;;;;;;;4.12;86.81;98305.91;10414953;28;20029;-57
2021/12/31 17:15:27;;;;;;;407.75;276.67;;;;;;;4.03;87.43;98297.09;10413243;28;20109;-57
2021/12/31 17:20:26;;;;;;;496.00;343.75;;;;;;;3.94;87.56;98301.03;10415118;28;20043;-57
2021/12/31 17:25:25;;;;;;;526.38;370.42;;;;;;;3.83;87.87;98296.41;10414321;28;20070;-57
2021/12/31 17:30:24;;;;;;;528.70;368.15;;;;;;;3.76;87.99;98291.03;10413855;28;20135;-57
2021/12/31 17:35:23;;;;;;;590.95;423.90;;;;;;;3.59;88.45;98303.28;10415077;28;20021;-57
2021/12/31 17:40:22;;;;;;;566.28;398.30;;;;;;;3.56;88.52;98301.44;10414561;28;20487;-57
2021/12/31 17:45:22;;;;;;;562.25;403.38;;;;;;;3.42;88.97;98269.31;10413484;28;20052;-57
2021/12/31 17:50:21;;;;;;;650.72;472.48;;;;;;;3.39;89.23;98280.34;10414771;28;20052;-57
2021/12/31 17:55:20;;;;;;;606.63;432.48;;;;;;;3.36;89.25;98289.63;10412701;28;20064;-57
2021/12/31 18:00:19;;;;;;;596.85;421.88;;;;;;;3.36;89.20;98277.66;10415564;28;20032;-57
2021/12/31 18:05:18;;;;;;;;;;;;;;;3.37;88.76;98291.38;10424666;28;20064;-57
2021/12/31 18:10:17;;;;;;;551.25;383.52;;;;;;;3.30;88.84;98287.69;10422470;28;19990;-57
2021/12/31 18:15:17;;;;;;;556.60;387.30;;;;;;;3.27;89.00;98271.34;10422096;28;20060;-57
2021/12/31 18:20:16;;;;;;;588.30;415.38;;;;;;;3.22;89.13;98291.69;10423825;28;20066;-57
2021/12/31 18:25:15;;;;;;;563.67;390.48;;;;;;;3.22;89.58;98282.31;10422595;28;20067;-57
2021/12/31 18:30:17;;;;;;;525.60;361.40;;;;;;;3.23;89.12;98278.03;10421349;28;20057;-57
2021/12/31 18:35:17;;;;;;;426.63;267.05;;;;;;;3.13;90.00;98270.84;10421286;28;20499;-57
2021/12/31 18:40:16;;;;;;;428.85;266.08;;;;;;;2.92;90.75;98276.03;10422101;28;20060;-57
2021/12/31 18:45:17;;;;;;;413.85;260.20;;;;;;;2.97;90.13;98283.06;10418903;28;20055;-57
2021/12/31 18:50:22;;;;;;;376.63;230.02;;;;;;;3.02;89.63;98271.28;10418426;28;20148;-57
2021/12/31 18:55:25;;;;;;;396.05;242.15;;;;;;;3.06;89.77;98263.75;10419612;28;20068;-57
2021/12/31 19:00:24;;;;;;;417.10;264.30;;;;;;;3.05;89.30;98274.78;10410729;28;20153;-57
2021/12/31 19:05:24;;;;;;;472.10;305.98;;;;;;;2.99;89.58;98270.31;10420502;28;20071;-57
2021/12/31 19:10:23;;;;;;;516.95;352.60;;;;;;;2.92;89.53;98251.28;10418018;28;20103;-57
2021/12/31 19:15:23;;;;;;;576.78;392.17;;;;;;;2.88;89.34;98253.66;10419900;28;20455;-57
2021/12/31 19:20:22;;;;;;;644.05;446.00;;;;;;;2.85;89.44;98257.00;10419780;28;20056;-57
2021/12/31 19:25:23;;;;;;;647.10;439.05;;;;;;;2.78;89.46;98255.88;10419437;28;20040;-57
2021/12/31 19:30:22;;;;;;;588.28;391.95;;;;;;;2.75;89.12;98257.47;10418119;28;20076;-57
2021/12/31 19:35:21;;;;;;;589.47;396.80;;;;;;;2.61;89.71;98244.13;10419502;28;20109;-57
2021/12/31 19:40:20;;;;;;;569.22;377.35;;;;;;;2.62;89.13;98245.00;10418704;28;20052;-57
2021/12/31 19:45:21;;;;;;;595.00;398.15;;;;;;;2.48;89.99;98247.91;10419118;28;20083;-57
2021/12/31 19:50:21;;;;;;;591.60;392.67;;;;;;;2.46;89.27;98249.53;10419446;28;20072;-59
2021/12/31 19:55:20;;;;;;;631.60;433.65;;;;;;;2.45;89.66;98247.78;10418218;28;20056;-58
2021/12/31 20:00:19;;;;;;;683.53;465.88;;;;;;;2.31;89.36;98244.69;10418547;28;20060;-57
2021/12/31 20:05:29;;;;;;;733.17;496.83;;;;;;;2.30;89.65;98253.19;10418632;28;20070;-58
2021/12/31 20:10:29;;;;;;;778.65;522.28;;;;;;;2.22;89.62;98261.38;10418036;28;20060;-58
2021/12/31 20:15:28;;;;;;;716.38;485.95;;;;;;;2.15;89.77;98261.13;10416025;28;20048;-57
2021/12/31 20:20:27;;;;;;;681.20;461.25;;;;;;;2.11;90.03;98269.50;10414561;28;20040;-57
2021/12/31 20:25:26;;;;;;;716.88;477.77;;;;;;;2.06;90.35;98252.19;10413193;28;20040;-58
2021/12/31 20:30:25;;;;;;;743.70;497.05;;;;;;;2.09;90.08;98248.09;10406008;28;20135;-57
2021/12/31 20:35:24;;;;;;;802.95;533.97;;;;;;;2.07;90.59;98254.84;10396964;28;20051;-57
2021/12/31 20:40:23;;;;;;;800.97;541.03;;;;;;;2.02;90.62;98240.09;10396822;28;20036;-57
2021/12/31 20:45:22;;;;;;;1003.88;624.97;;;;;;;1.82;90.50;98241.84;10412730;28;20032;-58
2021/12/31 20:50:23;;;;;;;963.25;609.70;;;;;;;1.74;90.66;98233.88;10414334;28;20037;-57
2021/12/31 20:55:22;;;;;;;902.67;581.63;;;;;;;1.62;90.46;98231.69;10413924;28;20072;-57
2021/12/31 21:00:21;;;;;;;820.10;532.17;;;;;;;1.73;90.42;98253.44;10415457;28;20067;-58
2021/12/31 21:05:20;;;;;;;633.90;414.95;;;;;;;1.71;90.39;98251.63;10416005;28;20043;-57
2021/12/31 21:10:19;;;;;;;632.53;404.90;;;;;;;1.67;90.00;98237.84;10415545;28;20462;-57
2021/12/31 21:15:18;;;;;;;667.17;436.63;;;;;;;1.59;89.77;98231.53;10414536;28;20502;-57
2021/12/31 21:20:17;;;;;;;650.45;421.50;;;;;;;1.58;89.98;98226.38;10415919;28;20037;-57
2021/12/31 21:25:16;;;;;;;565.50;341.15;;;;;;;1.54;89.82;98215.97;10417144;28;20068;-57
2021/12/31 21:30:15;;;;;;;555.70;348.17;;;;;;;1.44;90.25;98197.66;10413293;28;20056;-57
2021/12/31 21:35:14;;;;;;;417.77;185.38;;;;;;;1.03;90.62;98214.63;10414958;28;20071;-57
2021/12/31 21:40:13;;;;;;;399.48;170.68;;;;;;;0.86;90.45;98211.34;10415980;28;20029;-57
2021/12/31 21:45:12;;;;;;;;;;;;;;;0.74;90.43;98216.78;10414727;28;20078;-57
2021/12/31 21:50:12;;;;;;;518.50;196.77;;;;;;;0.75;90.34;98215.09;10415601;28;19962;-57
2021/12/31 21:55:15;;;;;;;472.17;187.60;;;;;;;0.81;90.33;98217.94;10414985;28;20063;-57
2021/12/31 22:00:20;;;;;;;455.65;179.00;;;;;;;0.80;90.44;98206.84;10414688;28;20086;-57
2021/12/31 22:05:19;;;;;;;435.85;190.93;;;;;;;0.82;90.57;98200.09;10413507;28;20492;-57
2021/12/31 22:10:18;;;;;;;469.25;222.40;;;;;;;0.80;90.57;98191.53;10409195;28;20143;-57
2021/12/31 22:15:17;;;;;;;774.30;329.88;;;;;;;0.83;90.59;98181.44;10411569;28;20159;-57
2021/12/31 22:20:16;;;;;;;721.13;357.23;;;;;;;0.85;90.33;98184.03;10410393;28;20534;-57
2021/12/31 22:25:15;;;;;;;716.10;369.50;;;;;;;0.84;90.80;98174.63;10405243;28;20024;-57
2021/12/31 22:30:14;;;;;;;925.63;464.13;;;;;;;0.93;90.64;98177.59;10407294;28;20048;-57
2021/12/31 22:35:13;;;;;;;1446.53;618.40;;;;;;;0.94;90.85;98168.22;10410457;28;20040;-57
2021/12/31 22:40:13;;;;;;;1838.32;707.00;;;;;;;1.00;90.94;98165.97;10411643;28;20055;-57
2021/12/31 22:45:14;;;;;;;1999.90;756.88;;;;;;;0.93;90.81;98129.03;10419037;28;20575;-57
2021/12/31 22:50:13;;;;;;;1999.90;800.92;;;;;;;1.01;91.02;98150.66;10411837;28;20479;-57